Time;durP1;ratioP1;P1;durP2;ratioP2;P2;SDS_P1;SDS_P2;PMS_P1;PMS_P2;Temp;Humidity;BMP_temperature;BMP_pressure;BME280_temperature;BME280_humidity;BME280_pressure;Samples;Min_cycle;Max_cycle;Signal;HPM_P1;HPM_P2
2022/12/14 00:00:57;;;;;;;2.25;2.13;;;13.90;61.70;;;;;;4987610;28;20507;-20
2022/12/14 00:03:22;;;;;;;2.67;2.47;;;13.80;60.90;;;;;;4988452;28;20058;-26
2022/12/14 00:05:48;;;;;;;2.67;2.47;;;13.90;60.90;;;;;;4986733;28;20476;-20
2022/12/14 00:08:14;;;;;;;2.38;2.28;;;13.90;60.80;;;;;;4987594;28;20054;-21
2022/12/14 00:10:40;;;;;;;2.40;2.30;;;13.90;60.90;;;;;;4985458;28;20049;-22
2022/12/14 00:13:06;;;;;;;2.00;1.90;;;13.80;60.90;;;;;;4988060;28;20054;-20
2022/12/14 00:15:31;;;;;;;2.20;2.10;;;13.80;60.90;;;;;;4977778;28;20043;-20
2022/12/14 00:17:58;;;;;;;2.50;2.40;;;13.80;60.90;;;;;;4988576;28;20125;-20
2022/12/14 00:20:23;;;;;;;2.40;2.30;;;13.80;60.80;;;;;;5002304;28;20443;-19
2022/12/14 00:22:49;;;;;;;2.33;2.22;;;13.80;60.90;;;;;;4986145;28;20142;-19
2022/12/14 00:25:14;;;;;;;2.38;2.28;;;13.80;60.90;;;;;;4987220;28;20046;-24
2022/12/14 00:27:44;;;;;;;2.30;2.20;;;13.80;60.90;;;;;;4987025;28;20109;-20
2022/12/14 00:30:14;;;;;;;1.80;1.70;;;13.80;60.70;;;;;;4985562;28;20050;-25
2022/12/14 00:32:42;;;;;;;1.83;1.73;;;13.80;60.70;;;;;;4984142;28;20526;-21
2022/12/14 00:35:09;;;;;;;1.85;1.75;;;13.80;60.70;;;;;;4987721;28;20050;-21
2022/12/14 00:37:34;;;;;;;2.05;1.95;;;13.80;60.70;;;;;;4987097;28;20129;-20
2022/12/14 00:40:00;;;;;;;2.30;2.13;;;13.80;60.70;;;;;;4986666;28;20133;-21
2022/12/14 00:42:26;;;;;;;1.88;1.77;;;13.80;60.70;;;;;;4988963;28;20064;-25
2022/12/14 00:44:52;;;;;;;2.30;2.20;;;13.80;60.60;;;;;;4985413;28;20058;-22
2022/12/14 00:47:17;;;;;;;2.28;2.17;;;13.80;60.50;;;;;;4987173;28;20097;-20
2022/12/14 00:49:43;;;;;;;1.92;1.83;;;13.80;60.50;;;;;;4984594;28;20054;-21
2022/12/14 00:52:09;;;;;;;2.13;2.03;;;13.80;60.50;;;;;;4986302;28;20521;-20
2022/12/14 00:54:34;;;;;;;2.40;2.30;;;13.80;60.60;;;;;;4987464;28;20038;-21
2022/12/14 00:57:00;;;;;;;2.00;1.90;;;13.80;60.50;;;;;;4987194;28;20407;-28
2022/12/14 00:59:25;;;;;;;1.95;1.85;;;13.80;60.50;;;;;;4986438;28;20137;-20
2022/12/14 01:01:51;;;;;;;2.13;2.03;;;13.90;60.30;;;;;;4986534;28;20053;-23
2022/12/14 01:04:16;;;;;;;2.03;1.92;;;13.90;60.30;;;;;;4987720;28;20034;-23
2022/12/14 01:06:43;;;;;;;2.05;1.95;;;13.80;60.30;;;;;;4986451;28;20038;-19
2022/12/14 01:09:08;;;;;;;1.75;1.65;;;13.80;60.30;;;;;;4987019;28;20088;-20
2022/12/14 01:11:34;;;;;;;2.10;2.00;;;13.80;60.30;;;;;;4986556;28;20046;-27
2022/12/14 01:14:00;;;;;;;1.90;1.80;;;13.80;60.20;;;;;;4985714;28;20074;-21
2022/12/14 01:16:25;;;;;;;2.00;1.90;;;13.80;60.30;;;;;;4986353;28;20057;-21
2022/12/14 01:18:51;;;;;;;2.10;2.00;;;13.80;60.40;;;;;;4987485;28;20034;-24
2022/12/14 01:21:21;;;;;;;2.05;1.95;;;13.80;60.50;;;;;;4988505;28;20050;-25
2022/12/14 01:23:47;;;;;;;1.80;1.70;;;13.80;60.30;;;;;;4989612;28;20109;-20
2022/12/14 01:26:14;;;;;;;1.60;1.50;;;13.80;60.30;;;;;;4989872;28;20082;-20
2022/12/14 01:28:39;;;;;;;1.77;1.67;;;13.80;60.30;;;;;;4989651;28;20129;-26
2022/12/14 01:31:13;;;;;;;1.80;1.70;;;13.70;60.30;;;;;;4993109;28;20181;-20
2022/12/14 01:33:39;;;;;;;1.60;1.50;;;13.80;60.40;;;;;;4989966;28;20058;-18
2022/12/14 01:36:06;;;;;;;1.70;1.60;;;13.80;60.30;;;;;;4989950;28;20297;-20
2022/12/14 01:38:31;;;;;;;1.60;1.50;;;13.80;60.30;;;;;;4989949;28;20050;-20
2022/12/14 01:40:57;;;;;;;1.85;1.75;;;13.80;60.20;;;;;;4988121;28;20034;-20
2022/12/14 01:43:23;;;;;;;1.65;1.55;;;13.80;60.30;;;;;;4986505;28;20061;-21
2022/12/14 01:45:48;;;;;;;1.58;1.48;;;13.80;60.20;;;;;;4998989;28;20042;-24
2022/12/14 01:48:14;;;;;;;1.65;1.55;;;13.80;60.20;;;;;;4991903;28;20104;-22
2022/12/14 01:50:42;;;;;;;1.75;1.65;;;13.80;60.20;;;;;;4988117;28;20046;-20
2022/12/14 01:53:10;;;;;;;1.70;1.60;;;13.80;60.20;;;;;;4987207;28;20556;-24
2022/12/14 01:55:42;;;;;;;1.45;1.40;;;13.80;60.10;;;;;;4986013;28;20757;-23
2022/12/14 01:58:21;;;;;;;1.77;1.67;;;13.80;60.00;;;;;;4989706;28;20065;-20
2022/12/14 02:00:48;;;;;;;1.70;1.60;;;13.80;59.90;;;;;;4986916;28;20042;-27
2022/12/14 02:03:17;;;;;;;1.90;1.80;;;13.80;60.10;;;;;;4985676;28;20055;-20
2022/12/14 02:05:47;;;;;;;1.70;1.60;;;13.80;60.10;;;;;;5010351;28;20125;-23
2022/12/14 02:08:13;;;;;;;1.83;1.73;;;13.80;60.00;;;;;;4989744;28;20050;-22
2022/12/14 02:10:38;;;;;;;1.80;1.70;;;13.80;60.00;;;;;;4990935;28;20042;-21
2022/12/14 02:13:24;;;;;;;1.83;1.73;;;13.70;60.20;;;;;;4987441;28;20042;-20
2022/12/14 02:15:50;;;;;;;2.22;1.65;;;13.80;60.10;;;;;;4988994;28;20511;-30
2022/12/14 02:18:21;;;;;;;1.73;1.63;;;13.70;60.00;;;;;;4989352;28;20050;-24
2022/12/14 02:21:08;;;;;;;1.60;1.50;;;13.80;60.00;;;;;;4990904;28;20043;-24
2022/12/14 02:24:06;;;;;;;2.10;2.00;;;13.70;60.10;;;;;;4987444;28;20133;-21
2022/12/14 02:26:58;;;;;;;1.55;1.45;;;13.70;60.20;;;;;;4980330;28;20042;-24
2022/12/14 02:29:29;;;;;;;1.92;1.83;;;13.70;60.00;;;;;;5014763;28;20054;-20
2022/12/14 02:32:07;;;;;;;1.83;1.73;;;13.70;60.00;;;;;;4985973;28;20053;-21
2022/12/14 02:34:50;;;;;;;1.70;1.60;;;13.80;60.00;;;;;;4987770;28;20042;-21
2022/12/14 02:37:28;;;;;;;1.83;1.73;;;13.70;60.10;;;;;;4986302;28;20081;-22
2022/12/14 02:40:12;;;;;;;1.83;1.73;;;13.70;60.10;;;;;;4984320;28;20064;-20
2022/12/14 02:42:48;;;;;;;1.63;1.63;;;13.70;60.10;;;;;;4987198;28;20074;-21
2022/12/14 02:45:16;;;;;;;1.70;1.60;;;13.70;60.00;;;;;;5017809;28;20790;-21
2022/12/14 02:47:53;;;;;;;2.00;1.90;;;13.70;60.00;;;;;;4986869;28;20050;-17
2022/12/14 02:50:23;;;;;;;1.27;1.27;;;13.70;60.10;;;;;;4988098;28;20031;-21
2022/12/14 02:53:10;;;;;;;1.52;1.42;;;13.60;60.10;;;;;;5013874;28;20046;-31
2022/12/14 02:55:47;;;;;;;1.65;1.55;;;13.70;60.10;;;;;;4989436;28;20112;-20
2022/12/14 02:58:33;;;;;;;1.60;1.50;;;13.70;59.90;;;;;;4971995;28;20055;-20
2022/12/14 03:00:59;;;;;;;1.75;1.65;;;13.70;59.90;;;;;;4987744;28;20043;-21
2022/12/14 03:03:24;;;;;;;1.67;1.58;;;13.70;59.90;;;;;;4987888;28;20427;-21
2022/12/14 03:06:13;;;;;;;1.48;1.40;;;13.70;59.90;;;;;;4985503;28;20109;-20
2022/12/14 03:08:40;;;;;;;1.70;1.60;;;13.60;60.00;;;;;;4988312;28;20101;-20
2022/12/14 03:11:06;;;;;;;1.38;1.38;;;13.60;59.90;;;;;;4986890;28;20130;-22
2022/12/14 03:13:49;;;;;;;1.33;1.33;;;13.60;59.90;;;;;;4987775;28;20129;-26
2022/12/14 03:16:33;;;;;;;1.40;1.40;;;13.70;60.00;;;;;;4967270;28;20512;-22
2022/12/14 03:19:24;;;;;;;1.42;1.33;;;13.70;59.90;;;;;;5015137;28;20050;-23
2022/12/14 03:21:53;;;;;;;1.63;1.52;;;13.70;59.80;;;;;;4985086;28;20492;-22
2022/12/14 03:24:24;;;;;;;1.20;1.20;;;13.70;59.90;;;;;;4984936;28;20672;-20
2022/12/14 03:27:00;;;;;;;1.35;1.25;;;13.70;59.90;;;;;;4987304;28;20128;-22
2022/12/14 03:29:30;;;;;;;1.25;1.25;;;13.70;59.90;;;;;;4984756;28;20042;-24
2022/12/14 03:32:10;;;;;;;1.83;1.73;;;13.60;59.80;;;;;;4986357;28;20058;-25
2022/12/14 03:34:38;;;;;;;1.70;1.60;;;13.70;59.90;;;;;;4988345;28;20047;-21
2022/12/14 03:37:09;;;;;;;1.50;1.40;;;13.70;59.70;;;;;;4986267;28;20053;-20
2022/12/14 03:39:35;;;;;;;1.52;1.42;;;13.60;59.80;;;;;;4988001;28;20046;-22
2022/12/14 03:42:21;;;;;;;1.38;1.30;;;13.60;59.90;;;;;;4986497;28;20062;-21
2022/12/14 03:45:08;;;;;;;1.25;1.23;;;13.70;59.80;;;;;;4977126;28;20034;-21
2022/12/14 03:47:37;;;;;;;1.13;1.13;;;13.70;59.60;;;;;;4986391;28;20034;-22
2022/12/14 03:50:02;;;;;;;1.35;1.25;;;13.60;59.70;;;;;;4989387;28;20050;-21
2022/12/14 03:52:43;;;;;;;1.35;1.35;;;13.70;59.80;;;;;;4987858;28;20046;-22
2022/12/14 03:55:19;;;;;;;1.13;1.13;;;13.70;59.70;;;;;;4984929;28;20080;-20
2022/12/14 03:58:05;;;;;;;1.13;1.13;;;13.70;59.60;;;;;;5005555;28;20038;-20
2022/12/14 04:00:34;;;;;;;1.10;1.10;;;13.60;59.70;;;;;;4978977;28;20054;-20
2022/12/14 04:03:05;;;;;;;1.50;1.40;;;13.60;59.80;;;;;;4986019;28;20058;-21
2022/12/14 04:05:39;;;;;;;1.77;1.67;;;13.70;59.80;;;;;;4987853;28;20073;-22
2022/12/14 04:08:25;;;;;;;1.30;1.30;;;13.60;59.60;;;;;;4986530;28;20121;-20
2022/12/14 04:19:15;;;;;;;1.10;1.10;;;13.60;59.70;;;;;;4988068;28;20129;-21
2022/12/14 04:21:55;;;;;;;1.05;1.05;;;13.60;59.70;;;;;;4983071;28;20050;-22
2022/12/14 04:27:41;;;;;;;1.15;1.15;;;13.60;59.70;;;;;;4962891;28;20043;-20
2022/12/14 04:30:08;;;;;;;1.42;1.40;;;13.60;59.80;;;;;;4948629;28;20074;-23
2022/12/14 04:32:53;;;;;;;1.52;1.48;;;13.60;59.70;;;;;;4975242;28;20109;-21
2022/12/14 04:35:36;;;;;;;1.35;1.33;;;13.60;59.70;;;;;;4949412;28;20062;-21
2022/12/14 04:38:03;;;;;;;1.40;1.30;;;13.60;59.70;;;;;;4961297;28;20584;-20
2022/12/14 04:40:41;;;;;;;1.08;1.08;;;13.60;59.80;;;;;;4946932;28;20147;-27
2022/12/14 04:43:09;;;;;;;1.38;1.30;;;13.60;59.70;;;;;;4944486;28;20055;-24
2022/12/14 04:45:40;;;;;;;1.20;1.20;;;13.60;59.70;;;;;;4966011;28;20540;-21
2022/12/14 04:48:15;;;;;;;1.20;1.20;;;13.50;59.70;;;;;;4954211;28;20043;-20
2022/12/14 04:50:44;;;;;;;1.17;1.17;;;13.60;59.60;;;;;;4937475;28;20034;-20
2022/12/14 04:53:12;;;;;;;1.10;1.10;;;13.60;59.70;;;;;;4957994;28;20518;-23
2022/12/14 04:56:00;;;;;;;1.10;1.10;;;13.50;59.70;;;;;;4949429;28;20034;-20
2022/12/14 04:58:26;;;;;;;1.05;1.05;;;13.60;59.80;;;;;;4967494;28;20066;-21
2022/12/14 05:01:03;;;;;;;1.23;1.23;;;13.60;59.70;;;;;;4968588;28;20042;-21
2022/12/14 05:03:30;;;;;;;1.13;1.13;;;13.60;59.60;;;;;;4989637;28;20043;-21
2022/12/14 05:06:15;;;;;;;1.30;1.30;;;13.60;59.60;;;;;;4987521;28;20555;-23
2022/12/14 05:09:03;;;;;;;1.30;1.30;;;13.60;59.50;;;;;;4997868;28;20400;-22
2022/12/14 05:11:40;;;;;;;1.23;1.23;;;13.60;59.60;;;;;;4972079;28;20520;-32
2022/12/14 05:14:09;;;;;;;1.10;1.10;;;13.60;59.70;;;;;;4987346;28;20400;-21
2022/12/14 05:16:34;;;;;;;1.27;1.27;;;13.60;59.60;;;;;;4989864;28;20050;-22
2022/12/14 05:19:00;;;;;;;1.25;1.25;;;13.50;59.70;;;;;;4987857;28;20104;-20
2022/12/14 05:24:10;;;;;;;1.40;1.30;;;13.60;59.50;;;;;;4989277;28;20041;-23
2022/12/14 05:26:35;;;;;;;1.10;1.10;;;13.60;59.50;;;;;;4990252;28;20043;-20
2022/12/14 05:29:01;;;;;;;1.20;1.20;;;13.60;59.60;;;;;;4987591;28;20042;-23
2022/12/14 05:31:26;;;;;;;1.52;1.50;;;13.60;59.70;;;;;;4987093;28;20415;-21
2022/12/14 05:33:52;;;;;;;1.45;1.45;;;13.50;59.70;;;;;;4989876;28;20126;-17
2022/12/14 05:36:18;;;;;;;1.30;1.30;;;13.50;59.50;;;;;;4990470;28;20054;-22
2022/12/14 05:38:44;;;;;;;1.30;1.30;;;13.60;59.50;;;;;;4987043;28;20073;-22
2022/12/14 05:41:09;;;;;;;1.10;1.10;;;13.60;59.50;;;;;;4993078;28;20070;-20
2022/12/14 05:43:35;;;;;;;1.42;1.40;;;13.50;59.70;;;;;;4989963;28;20051;-22
2022/12/14 05:46:01;;;;;;;1.23;1.23;;;13.50;59.60;;;;;;4989403;28;20101;-22
2022/12/14 05:48:27;;;;;;;1.20;1.20;;;13.50;59.60;;;;;;4988459;28;20416;-22
2022/12/14 05:50:53;;;;;;;1.33;1.30;;;13.50;59.60;;;;;;4988586;28;20047;-17
2022/12/14 05:53:18;;;;;;;1.00;1.00;;;13.60;59.60;;;;;;4989978;28;20092;-21
2022/12/14 05:55:50;;;;;;;1.10;1.10;;;13.50;59.60;;;;;;4987413;28;20057;-21
2022/12/14 05:58:16;;;;;;;1.10;1.10;;;13.50;59.70;;;;;;4988175;28;20038;-22
2022/12/14 06:00:42;;;;;;;1.10;1.10;;;13.50;59.60;;;;;;4988981;28;20540;-23
2022/12/14 06:03:08;;;;;;;1.10;1.10;;;13.50;59.60;;;;;;4989394;28;20415;-21
2022/12/14 06:05:33;;;;;;;0.88;0.88;;;13.50;59.60;;;;;;4988387;28;20069;-24
2022/12/14 06:07:59;;;;;;;0.93;0.93;;;13.50;59.60;;;;;;4987147;28;20045;-23
2022/12/14 06:10:24;;;;;;;1.00;1.00;;;13.40;59.70;;;;;;4990163;28;20046;-22
2022/12/14 06:12:50;;;;;;;1.00;1.00;;;13.40;59.70;;;;;;4990456;28;20515;-23
2022/12/14 06:15:15;;;;;;;1.00;1.00;;;13.40;60.30;;;;;;4991052;28;20042;-25
2022/12/14 06:17:45;;;;;;;1.15;1.15;;;13.40;60.70;;;;;;4989538;28;20110;-24
2022/12/14 06:20:11;;;;;;;1.20;1.20;;;13.30;60.90;;;;;;4989481;28;20557;-21
2022/12/14 06:22:36;;;;;;;1.58;1.48;;;13.30;61.50;;;;;;4993383;28;20051;-21
2022/12/14 06:25:02;;;;;;;2.47;2.38;;;13.30;61.90;;;;;;4987684;28;20057;-20
2022/12/14 06:27:28;;;;;;;4.75;4.30;;;13.30;61.80;;;;;;4989514;28;20508;-25
2022/12/14 06:29:54;;;;;;;5.88;5.43;;;13.40;61.50;;;;;;4986278;28;20041;-21
2022/12/14 06:32:19;;;;;;;5.32;4.82;;;13.40;61.90;;;;;;4988143;28;20050;-21
2022/12/14 06:34:45;;;;;;;5.47;4.95;;;13.40;61.90;;;;;;4989520;28;20038;-25
2022/12/14 06:37:11;;;;;;;6.85;5.93;;;13.40;62.00;;;;;;4989005;28;20046;-21
2022/12/14 06:39:37;;;;;;;7.03;6.32;;;13.30;62.40;;;;;;4989501;28;20397;-26
2022/12/14 06:42:03;;;;;;;8.50;6.30;;;13.40;62.30;;;;;;4987277;28;20526;-23
2022/12/14 06:44:29;;;;;;;8.65;7.25;;;13.30;62.20;;;;;;4988279;28;20034;-19
2022/12/14 06:46:54;;;;;;;10.48;7.53;;;13.40;62.30;;;;;;4987510;28;20125;-26
2022/12/14 06:49:20;;;;;;;8.80;7.13;;;13.40;62.10;;;;;;4988482;28;20053;-25
2022/12/14 06:51:46;;;;;;;7.78;6.80;;;13.30;62.30;;;;;;4989314;28;20049;-21
2022/12/14 06:54:12;;;;;;;9.55;7.07;;;13.30;62.30;;;;;;4988431;28;20046;-21
2022/12/14 06:56:37;;;;;;;7.60;6.45;;;13.30;62.20;;;;;;4988569;28;20057;-21
2022/12/14 06:59:04;;;;;;;7.35;6.25;;;13.40;62.20;;;;;;4987518;28;20050;-22
2022/12/14 07:01:29;;;;;;;8.40;6.15;;;13.40;62.00;;;;;;4987171;28;20103;-22
2022/12/14 07:03:56;;;;;;;8.32;5.78;;;13.40;62.00;;;;;;4986950;28;20042;-22
2022/12/14 07:06:22;;;;;;;7.68;6.15;;;13.40;61.90;;;;;;4988841;28;20053;-22
2022/12/14 07:08:48;;;;;;;6.95;5.85;;;13.40;61.90;;;;;;4987946;28;20503;-20
2022/12/14 07:11:14;;;;;;;6.75;5.82;;;13.40;61.80;;;;;;4983168;28;20112;-20
2022/12/14 07:13:40;;;;;;;6.13;5.53;;;13.50;61.80;;;;;;4987095;28;20041;-23
2022/12/14 07:16:06;;;;;;;5.93;5.35;;;13.40;61.80;;;;;;4985318;28;20030;-20
2022/12/14 07:18:32;;;;;;;6.97;5.82;;;13.40;61.90;;;;;;4985947;28;20042;-25
2022/12/14 07:21:02;;;;;;;6.05;5.40;;;13.40;61.90;;;;;;4988076;28;20112;-22
2022/12/14 07:23:28;;;;;;;8.18;5.60;;;13.40;61.90;;;;;;4987201;28;20054;-21
2022/12/14 07:26:00;;;;;;;9.30;5.35;;;13.40;61.90;;;;;;4987307;28;20057;-21
2022/12/14 07:28:26;;;;;;;6.80;5.28;;;13.40;61.90;;;;;;4988051;28;20042;-20
2022/12/14 07:30:54;;;;;;;5.75;5.25;;;13.40;62.10;;;;;;4985213;28;20049;-21
2022/12/14 07:33:20;;;;;;;5.40;4.90;;;13.40;62.00;;;;;;4987251;28;20041;-23
2022/12/14 07:35:46;;;;;;;5.43;4.93;;;13.40;62.00;;;;;;4986071;28;20042;-21
2022/12/14 07:38:12;;;;;;;5.88;5.38;;;13.40;62.00;;;;;;4966901;28;20078;-22
2022/12/14 07:40:37;;;;;;;5.32;4.85;;;13.50;62.10;;;;;;4986442;28;20141;-23
2022/12/14 07:43:03;;;;;;;6.78;5.22;;;13.60;61.70;;;;;;4983330;28;20042;-22
2022/12/14 07:45:29;;;;;;;6.78;5.10;;;13.70;62.10;;;;;;4984907;28;20046;-24
2022/12/14 07:47:55;;;;;;;5.15;4.60;;;13.70;62.00;;;;;;4987546;28;20042;-19
2022/12/14 07:50:20;;;;;;;4.82;4.43;;;13.60;62.10;;;;;;4985179;28;20046;-19
2022/12/14 07:52:46;;;;;;;6.15;5.20;;;13.50;62.10;;;;;;4989263;28;20038;-21
2022/12/14 07:55:11;;;;;;;9.82;5.30;;;13.50;62.30;;;;;;4983733;28;20535;-20
2022/12/14 07:57:37;;;;;;;5.35;4.85;;;13.70;62.10;;;;;;4986646;28;20045;-20
2022/12/14 08:00:03;;;;;;;5.97;4.78;;;13.90;61.20;;;;;;4984790;28;20046;-23
2022/12/14 08:02:28;;;;;;;5.90;5.30;;;14.00;60.90;;;;;;4986139;28;20077;-20
2022/12/14 08:04:54;;;;;;;4.80;4.40;;;14.10;60.50;;;;;;4987268;28;20038;-21
2022/12/14 08:07:20;;;;;;;5.28;4.85;;;14.20;60.10;;;;;;4986399;28;20405;-20
2022/12/14 08:09:46;;;;;;;6.75;4.55;;;14.10;60.50;;;;;;4986377;28;20042;-20
2022/12/14 08:12:12;;;;;;;5.43;4.88;;;14.20;60.30;;;;;;4984363;28;20046;-21
2022/12/14 08:14:37;;;;;;;4.78;4.40;;;14.10;60.50;;;;;;4986483;28;20035;-20
2022/12/14 08:17:03;;;;;;;4.32;3.92;;;14.10;60.50;;;;;;4985184;28;20042;-22
2022/12/14 08:19:28;;;;;;;4.55;4.15;;;14.00;60.70;;;;;;4987274;28;20038;-28
2022/12/14 08:21:54;;;;;;;5.30;4.15;;;14.00;61.00;;;;;;4986328;28;20047;-20
2022/12/14 08:24:20;;;;;;;4.63;4.30;;;14.10;61.00;;;;;;4985501;28;20515;-25
2022/12/14 08:26:45;;;;;;;5.72;4.88;;;14.10;61.10;;;;;;4985360;28;20050;-30
2022/12/14 08:29:13;;;;;;;6.03;4.63;;;14.10;61.50;;;;;;4633417;28;9999687;-23
2022/12/14 08:31:39;;;;;;;4.47;4.07;;;14.10;61.60;;;;;;4975554;28;20049;-22
2022/12/14 08:34:05;;;;;;;4.82;4.43;;;14.10;61.50;;;;;;4979288;28;20042;-21
2022/12/14 08:36:32;;;;;;;5.00;4.40;;;14.10;61.30;;;;;;4980718;28;20412;-20
2022/12/14 08:38:59;;;;;;;8.50;5.25;;;14.10;61.30;;;;;;4979774;28;20550;-20
2022/12/14 08:41:26;;;;;;;5.10;4.62;;;14.20;61.40;;;;;;4954844;28;1254118;-16
2022/12/14 08:43:52;;;;;;;5.80;4.78;;;14.20;61.40;;;;;;4986492;28;20109;-21
2022/12/14 08:46:18;;;;;;;8.73;5.80;;;14.20;61.30;;;;;;4985109;28;20077;-21
2022/12/14 08:48:44;;;;;;;6.90;6.20;;;14.20;61.30;;;;;;4987026;28;20038;-20
2022/12/14 08:51:09;;;;;;;7.55;6.38;;;14.20;61.20;;;;;;4985336;28;20040;-20
2022/12/14 08:53:36;;;;;;;6.13;5.55;;;14.20;61.50;;;;;;4986975;28;20047;-20
2022/12/14 08:56:11;;;;;;;9.45;6.75;;;14.20;61.20;;;;;;4986457;28;20562;-20
2022/12/14 08:58:38;;;;;;;6.72;6.13;;;14.20;60.90;;;;;;4983611;28;20100;-22
2022/12/14 09:01:14;;;;;;;7.40;6.55;;;14.30;60.80;;;;;;4985817;28;20043;-21
2022/12/14 09:03:43;;;;;;;7.88;6.93;;;14.30;60.90;;;;;;4985088;28;20054;-23
2022/12/14 09:06:10;;;;;;;12.13;6.75;;;14.30;60.70;;;;;;4986344;28;20507;-20
2022/12/14 09:08:36;;;;;;;6.60;5.90;;;14.30;60.80;;;;;;4986368;28;20039;-22
2022/12/14 09:11:02;;;;;;;6.60;6.00;;;14.40;60.60;;;;;;4984372;28;20042;-21
2022/12/14 09:13:27;;;;;;;7.15;6.20;;;14.40;60.50;;;;;;4986358;28;20049;-21
2022/12/14 09:16:07;;;;;;;7.30;6.35;;;14.30;60.60;;;;;;4985041;28;20678;-20
2022/12/14 09:18:36;;;;;;;6.63;5.68;;;14.30;60.70;;;;;;4983071;28;20407;-23
2022/12/14 09:21:01;;;;;;;6.00;5.50;;;14.30;60.60;;;;;;4982121;28;20046;-21
2022/12/14 09:23:28;;;;;;;6.35;5.78;;;14.40;60.40;;;;;;4988026;28;20051;-19
2022/12/14 09:26:11;;;;;;;7.75;5.68;;;14.40;60.20;;;;;;4989687;28;20030;-21
2022/12/14 09:28:37;;;;;;;5.78;5.18;;;14.40;60.20;;;;;;4985988;28;20534;-22
2022/12/14 09:31:09;;;;;;;6.10;5.60;;;14.40;60.30;;;;;;4983960;28;20121;-22
2022/12/14 09:33:35;;;;;;;6.30;5.80;;;14.40;60.30;;;;;;4986349;28;20531;-19
2022/12/14 09:36:12;;;;;;;6.78;5.95;;;14.40;60.30;;;;;;4985582;28;20364;-19
2022/12/14 09:38:38;;;;;;;6.28;5.78;;;14.40;60.30;;;;;;4980757;28;20065;-22
2022/12/14 09:41:25;;;;;;;5.55;5.15;;;14.40;60.30;;;;;;4986583;28;20058;-21
2022/12/14 09:44:23;;;;;;;5.60;5.20;;;14.30;60.50;;;;;;4980410;28;20046;-20
2022/12/14 09:46:54;;;;;;;7.63;5.20;;;14.30;60.30;;;;;;4989703;28;20046;-22
2022/12/14 09:49:26;;;;;;;5.45;5.05;;;14.40;60.10;;;;;;4991682;28;20043;-23
2022/12/14 09:51:52;;;;;;;7.15;6.22;;;14.40;60.00;;;;;;4989562;28;20053;-20
2022/12/14 09:54:17;;;;;;;5.25;4.85;;;14.30;60.70;;;;;;5010038;28;20038;-21
2022/12/14 09:56:43;;;;;;;5.75;5.25;;;14.40;60.40;;;;;;4987903;28;20050;-20
2022/12/14 09:59:11;;;;;;;5.78;5.28;;;14.40;60.20;;;;;;4984880;28;20057;-20
2022/12/14 10:01:54;;;;;;;5.15;4.75;;;14.50;60.10;;;;;;4972110;28;20079;-23
2022/12/14 10:04:23;;;;;;;5.75;5.20;;;14.50;60.10;;;;;;4987853;28;20077;-20
2022/12/14 10:07:03;;;;;;;5.13;4.72;;;14.50;60.00;;;;;;4988469;28;20046;-27
2022/12/14 10:09:35;;;;;;;5.00;4.55;;;14.50;60.00;;;;;;4987719;28;20054;-23
2022/12/14 10:12:39;;;;;;;5.20;4.70;;;14.50;60.00;;;;;;4988870;28;20061;-21
2022/12/14 10:15:11;;;;;;;5.53;5.03;;;14.40;60.30;;;;;;4987736;28;20054;-20
2022/12/14 10:18:12;;;;;;;5.50;5.00;;;14.40;60.10;;;;;;4990078;28;20533;-20
2022/12/14 10:21:10;;;;;;;5.53;5.00;;;14.40;60.20;;;;;;4987346;28;20109;-20
2022/12/14 10:23:35;;;;;;;5.05;4.57;;;14.40;60.10;;;;;;4972995;28;20082;-20
2022/12/14 10:26:07;;;;;;;6.53;4.32;;;14.40;60.00;;;;;;4988238;28;20070;-21
2022/12/14 10:28:54;;;;;;;4.70;4.40;;;14.40;59.90;;;;;;4989063;28;20057;-21
2022/12/14 10:31:45;;;;;;;6.25;4.47;;;14.40;59.80;;;;;;4987700;28;20065;-20
2022/12/14 10:34:19;;;;;;;5.10;4.70;;;14.40;60.00;;;;;;4988676;28;20455;-29
2022/12/14 10:36:54;;;;;;;4.78;4.47;;;14.40;60.00;;;;;;4989292;28;20038;-20
2022/12/14 10:39:46;;;;;;;4.25;3.92;;;14.50;59.70;;;;;;5018532;28;20046;-23
2022/12/14 10:42:47;;;;;;;4.70;4.40;;;14.40;59.70;;;;;;4977831;28;20074;-21
2022/12/14 10:45:26;;;;;;;4.40;4.10;;;14.40;59.70;;;;;;4992417;28;20411;-23
2022/12/14 10:47:56;;;;;;;4.82;4.43;;;14.40;59.60;;;;;;4987179;28;20030;-20
2022/12/14 10:50:46;;;;;;;4.32;4.03;;;14.40;59.50;;;;;;4984971;28;20203;-23
2022/12/14 10:53:18;;;;;;;4.95;3.80;;;14.40;59.50;;;;;;4981913;28;20030;-20
2022/12/14 10:55:44;;;;;;;4.10;3.80;;;14.40;59.50;;;;;;4977661;28;20432;-21
2022/12/14 10:58:10;;;;;;;4.50;4.20;;;14.50;59.60;;;;;;4989803;28;20451;-27
2022/12/14 11:00:36;;;;;;;4.43;4.13;;;14.50;59.40;;;;;;4988837;28;20049;-22
2022/12/14 11:03:01;;;;;;;4.05;3.75;;;14.40;59.50;;;;;;4989093;28;20042;-20
2022/12/14 11:05:30;;;;;;;4.85;4.40;;;14.50;59.50;;;;;;4987634;28;20038;-20
2022/12/14 11:07:56;;;;;;;4.13;3.90;;;14.40;59.60;;;;;;5019521;28;20126;-22
2022/12/14 11:10:26;;;;;;;4.55;4.25;;;14.50;59.40;;;;;;4988166;28;20113;-21
2022/12/14 11:13:06;;;;;;;4.05;3.83;;;14.50;59.30;;;;;;4988304;28;20204;-21
2022/12/14 11:15:42;;;;;;;3.50;3.30;;;14.50;59.30;;;;;;4987533;28;20033;-24
2022/12/14 11:18:11;;;;;;;3.67;3.30;;;14.40;59.50;;;;;;4988646;28;20031;-22
2022/12/14 11:20:51;;;;;;;3.85;3.58;;;14.40;59.60;;;;;;4987157;28;20173;-22
2022/12/14 11:23:24;;;;;;;3.25;3.05;;;14.40;59.50;;;;;;4986468;28;20050;-20
2022/12/14 11:25:57;;;;;;;3.45;3.17;;;14.40;59.50;;;;;;4988479;28;20200;-21
2022/12/14 11:28:36;;;;;;;3.60;3.35;;;14.40;59.60;;;;;;4983284;28;20496;-20
2022/12/14 11:31:08;;;;;;;3.30;3.10;;;14.30;59.40;;;;;;4986212;28;20062;-21
2022/12/14 11:33:38;;;;;;;3.20;3.00;;;14.50;59.40;;;;;;4985113;28;20237;-20
2022/12/14 11:36:04;;;;;;;3.60;3.33;;;14.40;59.60;;;;;;5018710;28;20121;-27
2022/12/14 11:38:31;;;;;;;3.80;3.42;;;14.40;59.50;;;;;;4988178;28;20104;-21
2022/12/14 11:40:57;;;;;;;3.45;3.20;;;14.40;59.50;;;;;;4986317;28;20038;-20
2022/12/14 11:43:24;;;;;;;3.72;3.53;;;14.40;59.60;;;;;;5012753;28;20050;-21
2022/12/14 11:45:50;;;;;;;4.38;3.97;;;14.30;60.00;;;;;;4983918;28;20412;-22
2022/12/14 11:48:17;;;;;;;6.03;4.38;;;14.30;60.00;;;;;;5017771;28;20495;-19
2022/12/14 11:50:43;;;;;;;6.38;4.60;;;14.50;59.60;;;;;;4985722;28;20039;-22
2022/12/14 11:53:14;;;;;;;9.35;5.60;;;14.60;59.50;;;;;;4985947;28;20042;-26
2022/12/14 11:55:55;;;;;;;8.77;5.10;;;14.60;59.50;;;;;;4629449;28;10000670;-22
2022/12/14 11:58:31;;;;;;;6.95;5.18;;;14.50;60.10;;;;;;4975324;28;20639;-21
2022/12/14 12:00:59;;;;;;;5.95;4.70;;;14.40;60.40;;;;;;4981847;28;20048;-23
2022/12/14 12:03:35;;;;;;;7.50;4.30;;;14.40;61.00;;;;;;4981423;28;20047;-21
2022/12/14 12:06:07;;;;;;;4.05;3.72;;;14.40;61.90;;;;;;4983958;28;20046;-25
2022/12/14 12:08:35;;;;;;;4.00;3.65;;;14.40;62.00;;;;;;4980385;28;20050;-22
2022/12/14 12:11:03;;;;;;;4.03;3.60;;;14.50;62.00;;;;;;4982722;28;20120;-22
2022/12/14 12:13:35;;;;;;;4.18;2.95;;;14.60;61.70;;;;;;4980330;28;20471;-21
2022/12/14 12:16:05;;;;;;;3.97;3.13;;;14.50;61.90;;;;;;4983697;28;20171;-24
2022/12/14 12:18:42;;;;;;;6.65;3.10;;;14.40;62.00;;;;;;4995519;28;20105;-20
2022/12/14 12:21:19;;;;;;;4.03;3.38;;;14.50;62.20;;;;;;4632995;28;10000446;-23
2022/12/14 12:24:03;;;;;;;6.30;3.40;;;14.50;62.70;;;;;;5005790;28;20147;-28
2022/12/14 12:26:48;;;;;;;4.88;3.25;;;14.50;63.00;;;;;;4974717;28;20038;-23
2022/12/14 12:29:26;;;;;;;4.82;3.50;;;14.50;63.60;;;;;;4976885;28;20350;-21
2022/12/14 12:32:09;;;;;;;4.82;3.35;;;14.50;64.00;;;;;;4981848;28;20046;-24
2022/12/14 12:34:49;;;;;;;6.30;2.88;;;14.60;63.70;;;;;;4980837;28;20030;-21
2022/12/14 12:37:18;;;;;;;4.22;3.30;;;14.70;63.30;;;;;;4977213;28;20047;-22
2022/12/14 12:39:45;;;;;;;5.65;3.03;;;14.50;63.40;;;;;;4974000;28;20057;-21
2022/12/14 12:42:40;;;;;;;2.75;2.55;;;14.60;63.10;;;;;;4980370;28;20555;-22
2022/12/14 12:45:20;;;;;;;3.42;2.90;;;14.60;63.00;;;;;;4975241;28;20569;-21
2022/12/14 12:47:52;;;;;;;4.13;2.50;;;14.60;63.00;;;;;;4993621;28;20047;-22
2022/12/14 12:50:23;;;;;;;3.33;3.03;;;14.50;63.30;;;;;;4976635;28;20105;-21
2022/12/14 12:52:53;;;;;;;4.72;2.75;;;14.50;63.20;;;;;;4991256;28;20043;-45
2022/12/14 12:55:20;;;;;;;2.95;2.65;;;14.50;63.40;;;;;;4979548;28;20050;-42
2022/12/14 12:57:48;;;;;;;3.00;2.65;;;14.50;63.40;;;;;;4976107;28;20034;-44
2022/12/14 13:00:18;;;;;;;2.80;2.20;;;14.50;63.30;;;;;;4979729;28;20050;-45
2022/12/14 13:02:47;;;;;;;4.00;2.65;;;14.40;63.50;;;;;;4974898;28;20058;-45
2022/12/14 13:05:15;;;;;;;5.13;2.15;;;14.40;63.30;;;;;;4981850;28;20205;-45
2022/12/14 13:07:52;;;;;;;3.00;2.33;;;14.30;63.70;;;;;;4977804;28;20046;-45
2022/12/14 13:10:23;;;;;;;2.97;2.65;;;14.40;63.40;;;;;;4990647;28;20053;-45
2022/12/14 13:13:17;;;;;;;2.78;2.28;;;14.30;63.50;;;;;;4975372;28;20047;-45
2022/12/14 13:15:50;;;;;;;2.10;1.90;;;14.30;63.70;;;;;;4976929;28;20049;-45
2022/12/14 13:18:25;;;;;;;2.45;2.25;;;14.30;63.60;;;;;;4980878;28;20046;-45